Aviation Digital Data Service (ADDS)

Output produced by METARs form (1826 UTC 26 October 2021)
found at http://aviationweather.gov/metar/data/
 
METAR text: KONP 261815Z AUTO 21020G36KT 1 1/4SM -RA OVC003 12/11 A2984 RMK AO2 P0001
Conditions at: KONP (NEWPORT , OR, US) observed 1815 UTC 26 October 2021
Temperature: 12.0°C (54°F)
Dewpoint: 11.0°C (52°F) [RH = 94%]
Pressure (altimeter): 29.84 inches Hg (1010.6 mb)
Winds: from the SSW (210 degrees) at 23 MPH (20 knots; 10.3 m/s)
gusting to 41 MPH (36 knots; 18.5 m/s)
Visibility: 1.25 miles (2.01 km)
Ceiling: 300 feet AGL
Clouds: overcast cloud deck at 300 feet AGL
Weather: -RA  (light rain)

METAR text: KONP 261755Z AUTO 21019G32KT 1 1/4SM +RA OVC003 11/11 A2983 RMK AO2 P0007
Conditions at: KONP (NEWPORT , OR, US) observed 1755 UTC 26 October 2021
Temperature: 11.0°C (52°F)
Dewpoint: 11.0°C (52°F) [RH = 100%]
Pressure (altimeter): 29.83 inches Hg (1010.2 mb)
Winds: from the SSW (210 degrees) at 22 MPH (19 knots; 9.8 m/s)
gusting to 37 MPH (32 knots; 16.5 m/s)
Visibility: 1.25 miles (2.01 km)
Ceiling: 300 feet AGL
Clouds: overcast cloud deck at 300 feet AGL
Weather: +RA  (heavy rain)

METAR text: KONP 261735Z AUTO 20024G32KT 1 1/4SM RA OVC005 11/11 A2983 RMK AO2 P0003
Conditions at: KONP (NEWPORT , OR, US) observed 1735 UTC 26 October 2021
Temperature: 11.0°C (52°F)
Dewpoint: 11.0°C (52°F) [RH = 100%]
Pressure (altimeter): 29.83 inches Hg (1010.2 mb)
Winds: from the SSW (200 degrees) at 28 MPH (24 knots; 12.3 m/s)
gusting to 37 MPH (32 knots; 16.5 m/s)
Visibility: 1.25 miles (2.01 km)
Ceiling: 500 feet AGL
Clouds: overcast cloud deck at 500 feet AGL
Weather: RA  (moderate rain)

METAR text: KONP 261715Z AUTO 19022G37KT 1 1/4SM RA OVC005 11/11 A2982 RMK AO2 P0001
Conditions at: KONP (NEWPORT , OR, US) observed 1715 UTC 26 October 2021
Temperature: 11.0°C (52°F)
Dewpoint: 11.0°C (52°F) [RH = 100%]
Pressure (altimeter): 29.82 inches Hg (1009.9 mb)
Winds: from the S (190 degrees) at 25 MPH (22 knots; 11.3 m/s)
gusting to 43 MPH (37 knots; 19.0 m/s)
Visibility: 1.25 miles (2.01 km)
Ceiling: 500 feet AGL
Clouds: overcast cloud deck at 500 feet AGL
Weather: RA  (moderate rain)

METAR text: KONP 261655Z AUTO 20023G32KT 1 1/4SM RA OVC005 11/11 A2981 RMK AO2 P0003
Conditions at: KONP (NEWPORT , OR, US) observed 1655 UTC 26 October 2021
Temperature: 11.0°C (52°F)
Dewpoint: 11.0°C (52°F) [RH = 100%]
Pressure (altimeter): 29.81 inches Hg (1009.6 mb)
Winds: from the SSW (200 degrees) at 26 MPH (23 knots; 11.8 m/s)
gusting to 37 MPH (32 knots; 16.5 m/s)
Visibility: 1.25 miles (2.01 km)
Ceiling: 500 feet AGL
Clouds: overcast cloud deck at 500 feet AGL
Weather: RA  (moderate rain)

METAR text: KONP 261635Z AUTO 20022G35KT 1 1/2SM RA OVC007 11/10 A2981 RMK AO2 P0001
Conditions at: KONP (NEWPORT , OR, US) observed 1635 UTC 26 October 2021
Temperature: 11.0°C (52°F)
Dewpoint: 10.0°C (50°F) [RH = 94%]
Pressure (altimeter): 29.81 inches Hg (1009.6 mb)
Winds: from the SSW (200 degrees) at 25 MPH (22 knots; 11.3 m/s)
gusting to 40 MPH (35 knots; 18.0 m/s)
Visibility: 1.50 miles (2.41 km)
Ceiling: 700 feet AGL
Clouds: overcast cloud deck at 700 feet AGL
Weather: RA  (moderate rain)

Forecast for: KONP (NEWPORT , OR, US)
Text: KONP 261726Z 2618/2718 19022G35KT 1SM -RA BR OVC005
Forecast period: 1800 to 2000 UTC 26 October 2021
Forecast type: FROM: standard forecast or significant change
Winds: from the S (190 degrees) at 25 MPH (22 knots; 11.3 m/s)
gusting to 40 MPH (35 knots; 18.0 m/s)
Visibility: 1.00 miles (1.61 km)
Ceiling: 500 feet AGL
Clouds: overcast cloud deck at 500 feet AGL
Weather: -RA BR  (light rain, mist)
Text: FM262000 23016G27KT P6SM VCSH OVC021
Forecast period: 2000 UTC 26 October 2021 to 0500 UTC 27 October 2021
Forecast type: FROM: standard forecast or significant change
Winds: from the SW (230 degrees) at 18 MPH (16 knots; 8.2 m/s)
gusting to 31 MPH (27 knots; 13.9 m/s)
Visibility: 6 or more miles (10+ km)
Ceiling: 2100 feet AGL
Clouds: overcast cloud deck at 2100 feet AGL
Weather: VCSH  (showers in vicinity)
Text: TEMPO 2701/2703 4SM -SHRA OVC008
Forecast period: 0100 to 0300 UTC 27 October 2021
Forecast type: TEMPORARY: The following changes expected for less than half the time period
Visibility: 4 miles (6 km)
Ceiling: 800 feet AGL
Clouds: overcast cloud deck at 800 feet AGL
Weather: -SHRA  (light rain showers)
Text: FM270500 23013G24KT P6SM -SHRA OVC035
Forecast period: 0500 to 1200 UTC 27 October 2021
Forecast type: FROM: standard forecast or significant change
Winds: from the SW (230 degrees) at 15 MPH (13 knots; 6.7 m/s)
gusting to 28 MPH (24 knots; 12.3 m/s)
Visibility: 6 or more miles (10+ km)
Ceiling: 3500 feet AGL
Clouds: overcast cloud deck at 3500 feet AGL
Weather: -SHRA  (light rain showers)
Text: FM271200 22006KT P6SM -SHRA SCT030 OVC045
Forecast period: 1200 to 1800 UTC 27 October 2021
Forecast type: FROM: standard forecast or significant change
Winds: from the SW (220 degrees) at 7 MPH (6 knots; 3.1 m/s)
Visibility: 6 or more miles (10+ km)
Ceiling: 4500 feet AGL
Clouds: scattered clouds at 3000 feet AGL
overcast cloud deck at 4500 feet AGL
Weather: -SHRA  (light rain showers)